Keller, WA

8:58 AM PST on January 25, 2015 (GMT -0800)
Admin Hill | Change Station
CLOSE
Current Station
Personal Weather Station
Location: Nespelem, WA
Elevation: 2352 ft
Nearby Weather Stations
Active Advisory: Dense Fog Advisory Active Notice: Record Report

Elev 2352 ft 48.14 °N, 118.97 °W | Updated 9 minutes ago

Overcast
Overcast
35.9 °F
Feels Like 33 °F
N
3.4
Wind Variable Wind from ENE

Today
High -- | Low -- °F
--% Chance of Precip.
Yesterday
High -- | Low -- °F
Precip. -- in
7:30 AM 4:43 PM
Waxing Crescent, 34% visible
Pressure 30.27 in
Visibility 10.0 miles
Clouds Overcast 300 ft
Windchill 33 °F
Dew Point Not available.
Humidity Not available.
Rainfall 0.00 in
Snow Depth Not available.
UV 0 out of 12
Pollen .90 out of 12
Air Quality Not available.
Flu Activity Not available.
METAR KSKA 251658Z AUTO 14004KT 10SM OVC003 06/06 A3022 RMK AO2 SLP250 T00580058

More Conditions Fewer Conditions

Pressure 30.27 in
Visibility 10.0 miles
Clouds Overcast 300 ft
Windchill 33 °F
Dew Point Not available.
Humidity Not available.
Rainfall 0.00 in
Snow Depth Not available.
UV 0 out of 12
Pollen .90 out of 12
Air Quality Not available.
Flu Activity Not available.
METAR KSKA 251658Z AUTO 14004KT 10SM OVC003 06/06 A3022 RMK AO2 SLP250 T00580058

More Conditions Fewer Conditions

10-Day Weather Forecast

Almanac

Astronomy

Jan. 25, 2015 Rise Set
Actual Time
Civil Twilight
Nautical Twilight
Astronomical Twilight
Moon
Length of Visible Light
Length of Day
Tomorrow will be .
, % of the Moon is Illuminated

Today's Extremes

State Highs State Lows

Community

WunderPhotos

Upload Photos

1,789,963 photos uploaded!

WunderBlogs® & News

Nearby

Air Quality

  Air Quality AQ Index Pollutant
Not available.

Snow Depth

Station Depth Elevation

Earthquake Activity

City Distance Mag. Time & Date
Minimum magnitude displayed is 2.5.

Coastal Water Temperatures

Place Temperature

Nearby Weather Stations